Middleway, West Virginia
Current Conditions -  °F | °C
As of 9:53 PM on Sunday 21 Dec 2014 (Local Time) from KMRB Reporting Station
Haze Haze  
Wind Chill: 29°   Ceiling: Unl
Heat Index: 29°   Visibility: 6mi
Dew Point: 20°   Wind: 0mph
Humidity: 69%   Direction: NA
Pressure: 30.32"   Gusts: NA
Location:  39.3256°N, 77.947°W
Report Text: KMRB 220253Z AUTO 00000KT 6SM HZ CLR M02/M07 A3032 RMK AO2 SLP272 T10171067 53008 TSNO
Loading
Personal Weather Stations






























Interactive Weather Map New forecast layout! Learn more

10-Day Weather Forecast

Advertisements
Track Severe Weather on mobile